sensor_id;sensor_type;location;lat;lon;timestamp;P1;durP1;ratioP1;P2;durP2;ratioP2
65799;SDS011;52544;48.116;11.660;2023-03-03T00:01:28;47.20;;;16.65;;
65799;SDS011;52544;48.116;11.660;2023-03-03T00:03:54;45.20;;;17.02;;
65799;SDS011;52544;48.116;11.660;2023-03-03T00:06:20;40.33;;;16.20;;
65799;SDS011;52544;48.116;11.660;2023-03-03T00:08:45;40.78;;;16.42;;
65799;SDS011;52544;48.116;11.660;2023-03-03T00:11:11;47.28;;;16.27;;
65799;SDS011;52544;48.116;11.660;2023-03-03T00:13:45;42.88;;;16.08;;
65799;SDS011;52544;48.116;11.660;2023-03-03T00:16:15;47.22;;;16.38;;
65799;SDS011;52544;48.116;11.660;2023-03-03T00:18:53;47.10;;;17.15;;
65799;SDS011;52544;48.116;11.660;2023-03-03T00:24:21;46.70;;;17.15;;
65799;SDS011;52544;48.116;11.660;2023-03-03T00:26:59;40.25;;;14.88;;
65799;SDS011;52544;48.116;11.660;2023-03-03T00:31:53;42.88;;;16.35;;
65799;SDS011;52544;48.116;11.660;2023-03-03T00:34:22;41.63;;;16.45;;
65799;SDS011;52544;48.116;11.660;2023-03-03T00:36:53;45.35;;;16.38;;
65799;SDS011;52544;48.116;11.660;2023-03-03T00:41:55;49.17;;;17.42;;
65799;SDS011;52544;48.116;11.660;2023-03-03T00:44:30;38.85;;;15.13;;
65799;SDS011;52544;48.116;11.660;2023-03-03T00:47:02;43.53;;;15.55;;
65799;SDS011;52544;48.116;11.660;2023-03-03T00:49:42;44.17;;;15.60;;
65799;SDS011;52544;48.116;11.660;2023-03-03T00:52:18;49.25;;;16.45;;
65799;SDS011;52544;48.116;11.660;2023-03-03T00:54:44;44.30;;;16.75;;
65799;SDS011;52544;48.116;11.660;2023-03-03T00:57:10;41.50;;;16.90;;
65799;SDS011;52544;48.116;11.660;2023-03-03T00:59:39;40.60;;;15.32;;
65799;SDS011;52544;48.116;11.660;2023-03-03T01:02:06;40.45;;;16.75;;
65799;SDS011;52544;48.116;11.660;2023-03-03T01:04:31;47.30;;;16.35;;
65799;SDS011;52544;48.116;11.660;2023-03-03T01:06:57;39.72;;;16.23;;
65799;SDS011;52544;48.116;11.660;2023-03-03T01:09:22;45.22;;;17.10;;
65799;SDS011;52544;48.116;11.660;2023-03-03T01:11:48;47.13;;;16.75;;
65799;SDS011;52544;48.116;11.660;2023-03-03T01:14:14;53.08;;;16.90;;
65799;SDS011;52544;48.116;11.660;2023-03-03T01:16:40;42.85;;;15.98;;
65799;SDS011;52544;48.116;11.660;2023-03-03T01:19:05;41.65;;;15.40;;
65799;SDS011;52544;48.116;11.660;2023-03-03T01:21:31;45.20;;;16.80;;
65799;SDS011;52544;48.116;11.660;2023-03-03T01:23:56;40.40;;;16.83;;
65799;SDS011;52544;48.116;11.660;2023-03-03T01:26:22;44.90;;;16.13;;
65799;SDS011;52544;48.116;11.660;2023-03-03T01:28:47;48.45;;;17.38;;
65799;SDS011;52544;48.116;11.660;2023-03-03T01:31:13;49.72;;;16.40;;
65799;SDS011;52544;48.116;11.660;2023-03-03T01:33:38;46.70;;;16.92;;
65799;SDS011;52544;48.116;11.660;2023-03-03T01:36:04;49.85;;;17.70;;
65799;SDS011;52544;48.116;11.660;2023-03-03T01:38:30;41.28;;;16.05;;
65799;SDS011;52544;48.116;11.660;2023-03-03T01:40:56;46.70;;;17.05;;
65799;SDS011;52544;48.116;11.660;2023-03-03T01:43:27;40.17;;;16.02;;
65799;SDS011;52544;48.116;11.660;2023-03-03T01:48:24;43.97;;;15.75;;
65799;SDS011;52544;48.116;11.660;2023-03-03T01:50:56;46.35;;;17.83;;
65799;SDS011;52544;48.116;11.660;2023-03-03T01:53:27;43.63;;;16.73;;
65799;SDS011;52544;48.116;11.660;2023-03-03T01:55:58;46.00;;;16.00;;
65799;SDS011;52544;48.116;11.660;2023-03-03T01:58:25;49.40;;;17.38;;
65799;SDS011;52544;48.116;11.660;2023-03-03T02:00:58;39.30;;;15.95;;
65799;SDS011;52544;48.116;11.660;2023-03-03T02:03:27;40.55;;;14.90;;
65799;SDS011;52544;48.116;11.660;2023-03-03T02:05:56;48.45;;;17.83;;
65799;SDS011;52544;48.116;11.660;2023-03-03T02:08:26;48.50;;;17.75;;
65799;SDS011;52544;48.116;11.660;2023-03-03T02:11:08;46.33;;;16.83;;
65799;SDS011;52544;48.116;11.660;2023-03-03T02:13:35;46.05;;;15.85;;
65799;SDS011;52544;48.116;11.660;2023-03-03T02:16:00;50.40;;;16.88;;
65799;SDS011;52544;48.116;11.660;2023-03-03T02:18:26;46.13;;;16.90;;
65799;SDS011;52544;48.116;11.660;2023-03-03T02:28:34;43.83;;;15.85;;
65799;SDS011;52544;48.116;11.660;2023-03-03T02:31:02;42.85;;;16.90;;
65799;SDS011;52544;48.116;11.660;2023-03-03T02:33:31;42.55;;;16.27;;
65799;SDS011;52544;48.116;11.660;2023-03-03T02:35:56;47.88;;;16.77;;
65799;SDS011;52544;48.116;11.660;2023-03-03T02:38:33;46.00;;;16.60;;
65799;SDS011;52544;48.116;11.660;2023-03-03T02:44:16;41.53;;;14.98;;
65799;SDS011;52544;48.116;11.660;2023-03-03T02:46:44;43.65;;;16.10;;
65799;SDS011;52544;48.116;11.660;2023-03-03T02:49:11;44.95;;;15.35;;
65799;SDS011;52544;48.116;11.660;2023-03-03T02:51:38;48.85;;;16.60;;
65799;SDS011;52544;48.116;11.660;2023-03-03T02:54:04;47.88;;;16.45;;
65799;SDS011;52544;48.116;11.660;2023-03-03T02:56:31;43.05;;;15.90;;
65799;SDS011;52544;48.116;11.660;2023-03-03T02:58:57;43.45;;;15.27;;
65799;SDS011;52544;48.116;11.660;2023-03-03T03:01:22;47.42;;;16.83;;
65799;SDS011;52544;48.116;11.660;2023-03-03T03:03:48;45.10;;;16.35;;
65799;SDS011;52544;48.116;11.660;2023-03-03T03:06:13;43.42;;;15.98;;
65799;SDS011;52544;48.116;11.660;2023-03-03T03:08:39;51.00;;;16.05;;
65799;SDS011;52544;48.116;11.660;2023-03-03T03:11:04;53.42;;;16.33;;
65799;SDS011;52544;48.116;11.660;2023-03-03T03:13:30;41.25;;;16.67;;
65799;SDS011;52544;48.116;11.660;2023-03-03T03:15:56;43.35;;;16.25;;
65799;SDS011;52544;48.116;11.660;2023-03-03T03:18:22;41.78;;;16.42;;
65799;SDS011;52544;48.116;11.660;2023-03-03T03:20:48;47.72;;;17.85;;
65799;SDS011;52544;48.116;11.660;2023-03-03T03:23:13;44.42;;;17.42;;
65799;SDS011;52544;48.116;11.660;2023-03-03T03:25:39;47.55;;;17.30;;
65799;SDS011;52544;48.116;11.660;2023-03-03T03:28:13;38.35;;;15.73;;
65799;SDS011;52544;48.116;11.660;2023-03-03T03:30:39;45.25;;;16.05;;
65799;SDS011;52544;48.116;11.660;2023-03-03T03:33:05;41.33;;;15.18;;
65799;SDS011;52544;48.116;11.660;2023-03-03T03:35:32;40.42;;;16.85;;
65799;SDS011;52544;48.116;11.660;2023-03-03T03:37:58;39.97;;;15.50;;
65799;SDS011;52544;48.116;11.660;2023-03-03T03:40:23;50.28;;;17.15;;
65799;SDS011;52544;48.116;11.660;2023-03-03T03:42:51;45.17;;;17.05;;
65799;SDS011;52544;48.116;11.660;2023-03-03T03:45:17;43.58;;;16.48;;
65799;SDS011;52544;48.116;11.660;2023-03-03T03:47:42;41.22;;;16.40;;
65799;SDS011;52544;48.116;11.660;2023-03-03T03:50:08;44.08;;;16.08;;
65799;SDS011;52544;48.116;11.660;2023-03-03T03:52:34;44.22;;;17.58;;
65799;SDS011;52544;48.116;11.660;2023-03-03T03:55:00;45.22;;;16.38;;
65799;SDS011;52544;48.116;11.660;2023-03-03T03:57:25;42.80;;;16.70;;
65799;SDS011;52544;48.116;11.660;2023-03-03T03:59:51;45.88;;;17.35;;
65799;SDS011;52544;48.116;11.660;2023-03-03T04:02:16;42.85;;;15.45;;
65799;SDS011;52544;48.116;11.660;2023-03-03T04:04:42;45.08;;;17.00;;
65799;SDS011;52544;48.116;11.660;2023-03-03T04:07:07;46.38;;;15.23;;
65799;SDS011;52544;48.116;11.660;2023-03-03T04:09:33;48.28;;;17.33;;
65799;SDS011;52544;48.116;11.660;2023-03-03T04:11:58;44.63;;;17.15;;
65799;SDS011;52544;48.116;11.660;2023-03-03T04:14:24;43.92;;;16.30;;
65799;SDS011;52544;48.116;11.660;2023-03-03T04:16:49;49.45;;;18.30;;
65799;SDS011;52544;48.116;11.660;2023-03-03T04:19:15;44.30;;;16.17;;
65799;SDS011;52544;48.116;11.660;2023-03-03T04:21:40;47.67;;;17.52;;
65799;SDS011;52544;48.116;11.660;2023-03-03T04:24:06;44.63;;;16.33;;
65799;SDS011;52544;48.116;11.660;2023-03-03T04:26:31;47.30;;;17.48;;
65799;SDS011;52544;48.116;11.660;2023-03-03T04:28:57;40.38;;;16.13;;
65799;SDS011;52544;48.116;11.660;2023-03-03T04:31:23;47.80;;;17.15;;
65799;SDS011;52544;48.116;11.660;2023-03-03T04:33:50;44.17;;;16.27;;
65799;SDS011;52544;48.116;11.660;2023-03-03T04:36:16;44.03;;;16.55;;
65799;SDS011;52544;48.116;11.660;2023-03-03T04:38:42;42.60;;;17.83;;
65799;SDS011;52544;48.116;11.660;2023-03-03T04:41:07;45.70;;;17.40;;
65799;SDS011;52544;48.116;11.660;2023-03-03T04:43:33;41.13;;;16.65;;
65799;SDS011;52544;48.116;11.660;2023-03-03T04:45:58;49.42;;;17.98;;
65799;SDS011;52544;48.116;11.660;2023-03-03T04:48:23;46.63;;;17.42;;
65799;SDS011;52544;48.116;11.660;2023-03-03T04:50:49;50.47;;;17.30;;
65799;SDS011;52544;48.116;11.660;2023-03-03T04:53:14;47.08;;;17.38;;
65799;SDS011;52544;48.116;11.660;2023-03-03T04:55:40;46.28;;;17.10;;
65799;SDS011;52544;48.116;11.660;2023-03-03T04:58:05;43.30;;;17.00;;
65799;SDS011;52544;48.116;11.660;2023-03-03T05:00:31;52.10;;;18.05;;
65799;SDS011;52544;48.116;11.660;2023-03-03T05:02:57;51.05;;;18.17;;
65799;SDS011;52544;48.116;11.660;2023-03-03T05:05:22;43.88;;;17.90;;
65799;SDS011;52544;48.116;11.660;2023-03-03T05:07:48;41.60;;;16.23;;
65799;SDS011;52544;48.116;11.660;2023-03-03T05:10:13;45.78;;;18.80;;
65799;SDS011;52544;48.116;11.660;2023-03-03T05:12:39;46.00;;;17.60;;
65799;SDS011;52544;48.116;11.660;2023-03-03T05:15:04;47.28;;;18.35;;
65799;SDS011;52544;48.116;11.660;2023-03-03T05:17:30;51.17;;;18.60;;
65799;SDS011;52544;48.116;11.660;2023-03-03T05:19:56;51.78;;;17.77;;
65799;SDS011;52544;48.116;11.660;2023-03-03T05:22:21;45.55;;;17.13;;
65799;SDS011;52544;48.116;11.660;2023-03-03T05:24:47;50.28;;;18.63;;
65799;SDS011;52544;48.116;11.660;2023-03-03T05:27:13;48.03;;;18.80;;
65799;SDS011;52544;48.116;11.660;2023-03-03T05:29:39;48.13;;;19.25;;
65799;SDS011;52544;48.116;11.660;2023-03-03T05:32:05;47.47;;;17.92;;
65799;SDS011;52544;48.116;11.660;2023-03-03T05:34:31;50.53;;;19.20;;
65799;SDS011;52544;48.116;11.660;2023-03-03T05:36:56;45.97;;;17.25;;
65799;SDS011;52544;48.116;11.660;2023-03-03T05:39:22;45.45;;;18.00;;
65799;SDS011;52544;48.116;11.660;2023-03-03T05:41:47;52.08;;;19.30;;
65799;SDS011;52544;48.116;11.660;2023-03-03T05:44:13;49.22;;;18.65;;
65799;SDS011;52544;48.116;11.660;2023-03-03T05:46:38;53.38;;;18.30;;
65799;SDS011;52544;48.116;11.660;2023-03-03T05:49:04;43.05;;;17.95;;
65799;SDS011;52544;48.116;11.660;2023-03-03T05:51:29;52.80;;;18.23;;
65799;SDS011;52544;48.116;11.660;2023-03-03T05:53:55;45.03;;;18.08;;
65799;SDS011;52544;48.116;11.660;2023-03-03T05:56:20;49.03;;;18.75;;
65799;SDS011;52544;48.116;11.660;2023-03-03T05:58:46;49.47;;;18.27;;
65799;SDS011;52544;48.116;11.660;2023-03-03T06:01:11;48.28;;;18.45;;
65799;SDS011;52544;48.116;11.660;2023-03-03T06:03:37;47.17;;;18.95;;
65799;SDS011;52544;48.116;11.660;2023-03-03T06:06:02;51.50;;;19.00;;
65799;SDS011;52544;48.116;11.660;2023-03-03T06:08:28;50.92;;;19.23;;
65799;SDS011;52544;48.116;11.660;2023-03-03T06:10:55;51.35;;;19.13;;
65799;SDS011;52544;48.116;11.660;2023-03-03T06:13:20;44.03;;;18.27;;
65799;SDS011;52544;48.116;11.660;2023-03-03T06:15:46;54.47;;;17.85;;
65799;SDS011;52544;48.116;11.660;2023-03-03T06:18:11;51.15;;;20.33;;
65799;SDS011;52544;48.116;11.660;2023-03-03T06:20:37;52.20;;;18.95;;
65799;SDS011;52544;48.116;11.660;2023-03-03T06:23:03;70.70;;;27.80;;
65799;SDS011;52544;48.116;11.660;2023-03-03T06:25:29;57.47;;;23.88;;
65799;SDS011;52544;48.116;11.660;2023-03-03T06:27:54;53.67;;;21.25;;
65799;SDS011;52544;48.116;11.660;2023-03-03T06:30:20;50.25;;;19.25;;
65799;SDS011;52544;48.116;11.660;2023-03-03T06:32:45;55.22;;;20.08;;
65799;SDS011;52544;48.116;11.660;2023-03-03T06:35:11;50.70;;;19.83;;
65799;SDS011;52544;48.116;11.660;2023-03-03T06:37:36;52.10;;;19.60;;
65799;SDS011;52544;48.116;11.660;2023-03-03T06:40:03;52.40;;;19.63;;
65799;SDS011;52544;48.116;11.660;2023-03-03T06:42:29;58.25;;;21.67;;
65799;SDS011;52544;48.116;11.660;2023-03-03T06:44:54;49.53;;;19.90;;
65799;SDS011;52544;48.116;11.660;2023-03-03T06:47:20;59.20;;;21.60;;
65799;SDS011;52544;48.116;11.660;2023-03-03T06:49:46;58.00;;;22.90;;
65799;SDS011;52544;48.116;11.660;2023-03-03T06:52:13;62.13;;;23.15;;
65799;SDS011;52544;48.116;11.660;2023-03-03T06:54:42;62.05;;;23.92;;
65799;SDS011;52544;48.116;11.660;2023-03-03T06:57:15;60.30;;;21.90;;
65799;SDS011;52544;48.116;11.660;2023-03-03T06:59:51;63.03;;;23.88;;
65799;SDS011;52544;48.116;11.660;2023-03-03T07:02:19;62.88;;;23.70;;
65799;SDS011;52544;48.116;11.660;2023-03-03T07:04:45;66.70;;;24.05;;
65799;SDS011;52544;48.116;11.660;2023-03-03T07:09:45;61.75;;;23.90;;
65799;SDS011;52544;48.116;11.660;2023-03-03T07:12:31;63.63;;;25.17;;
65799;SDS011;52544;48.116;11.660;2023-03-03T07:15:01;71.55;;;25.90;;
65799;SDS011;52544;48.116;11.660;2023-03-03T07:17:38;69.00;;;25.15;;
65799;SDS011;52544;48.116;11.660;2023-03-03T07:20:19;86.70;;;31.98;;
65799;SDS011;52544;48.116;11.660;2023-03-03T07:22:47;96.72;;;35.33;;
65799;SDS011;52544;48.116;11.660;2023-03-03T07:25:20;66.20;;;25.48;;
65799;SDS011;52544;48.116;11.660;2023-03-03T07:27:54;65.45;;;25.15;;
65799;SDS011;52544;48.116;11.660;2023-03-03T07:30:25;63.20;;;24.20;;
65799;SDS011;52544;48.116;11.660;2023-03-03T07:32:53;63.97;;;25.30;;
65799;SDS011;52544;48.116;11.660;2023-03-03T07:35:25;64.10;;;24.92;;
65799;SDS011;52544;48.116;11.660;2023-03-03T07:37:59;64.55;;;25.30;;
65799;SDS011;52544;48.116;11.660;2023-03-03T07:40:37;70.88;;;27.42;;
65799;SDS011;52544;48.116;11.660;2023-03-03T07:43:21;64.47;;;23.83;;
65799;SDS011;52544;48.116;11.660;2023-03-03T07:48:36;60.55;;;23.85;;
65799;SDS011;52544;48.116;11.660;2023-03-03T07:54:16;65.35;;;23.20;;
65799;SDS011;52544;48.116;11.660;2023-03-03T07:56:58;70.00;;;24.10;;
65799;SDS011;52544;48.116;11.660;2023-03-03T07:59:32;64.20;;;26.17;;
65799;SDS011;52544;48.116;11.660;2023-03-03T08:02:00;65.18;;;24.27;;
65799;SDS011;52544;48.116;11.660;2023-03-03T08:04:40;72.20;;;27.15;;
65799;SDS011;52544;48.116;11.660;2023-03-03T08:07:13;63.45;;;24.85;;
65799;SDS011;52544;48.116;11.660;2023-03-03T08:12:41;62.03;;;23.90;;
65799;SDS011;52544;48.116;11.660;2023-03-03T08:15:20;63.83;;;24.95;;
65799;SDS011;52544;48.116;11.660;2023-03-03T08:17:50;65.60;;;23.48;;
65799;SDS011;52544;48.116;11.660;2023-03-03T08:23:11;70.18;;;25.80;;
65799;SDS011;52544;48.116;11.660;2023-03-03T08:25:37;73.57;;;25.30;;
65799;SDS011;52544;48.116;11.660;2023-03-03T08:28:03;66.90;;;24.67;;
65799;SDS011;52544;48.116;11.660;2023-03-03T08:30:29;77.35;;;27.20;;
65799;SDS011;52544;48.116;11.660;2023-03-03T08:32:56;63.60;;;26.02;;
65799;SDS011;52544;48.116;11.660;2023-03-03T08:35:22;62.47;;;24.33;;
65799;SDS011;52544;48.116;11.660;2023-03-03T08:37:47;66.40;;;26.02;;
65799;SDS011;52544;48.116;11.660;2023-03-03T08:40:12;64.47;;;25.02;;
65799;SDS011;52544;48.116;11.660;2023-03-03T08:42:38;67.40;;;24.85;;
65799;SDS011;52544;48.116;11.660;2023-03-03T08:45:03;70.40;;;25.85;;
65799;SDS011;52544;48.116;11.660;2023-03-03T08:47:29;68.63;;;25.27;;
65799;SDS011;52544;48.116;11.660;2023-03-03T08:49:54;71.85;;;26.88;;
65799;SDS011;52544;48.116;11.660;2023-03-03T08:52:20;64.28;;;25.92;;
65799;SDS011;52544;48.116;11.660;2023-03-03T08:54:45;77.07;;;27.33;;
65799;SDS011;52544;48.116;11.660;2023-03-03T08:57:11;67.22;;;25.40;;
65799;SDS011;52544;48.116;11.660;2023-03-03T08:59:36;67.97;;;26.23;;
65799;SDS011;52544;48.116;11.660;2023-03-03T09:02:04;65.45;;;26.17;;
65799;SDS011;52544;48.116;11.660;2023-03-03T09:04:30;69.57;;;26.10;;
65799;SDS011;52544;48.116;11.660;2023-03-03T09:06:56;69.00;;;27.88;;
65799;SDS011;52544;48.116;11.660;2023-03-03T09:09:22;66.65;;;25.23;;
65799;SDS011;52544;48.116;11.660;2023-03-03T09:11:47;68.63;;;25.15;;
65799;SDS011;52544;48.116;11.660;2023-03-03T09:14:14;68.35;;;26.52;;
65799;SDS011;52544;48.116;11.660;2023-03-03T09:16:47;74.47;;;28.02;;
65799;SDS011;52544;48.116;11.660;2023-03-03T09:21:44;68.47;;;26.45;;
65799;SDS011;52544;48.116;11.660;2023-03-03T09:24:30;62.28;;;24.15;;
65799;SDS011;52544;48.116;11.660;2023-03-03T09:26:56;65.65;;;26.77;;
65799;SDS011;52544;48.116;11.660;2023-03-03T09:29:26;64.13;;;25.38;;
65799;SDS011;52544;48.116;11.660;2023-03-03T09:34:37;73.63;;;27.38;;
65799;SDS011;52544;48.116;11.660;2023-03-03T09:39:32;72.82;;;26.48;;
65799;SDS011;52544;48.116;11.660;2023-03-03T10:01:22;66.15;;;25.08;;
65799;SDS011;52544;48.116;11.660;2023-03-03T10:06:47;65.75;;;27.38;;
65799;SDS011;52544;48.116;11.660;2023-03-03T10:12:12;68.63;;;25.90;;
65799;SDS011;52544;48.116;11.660;2023-03-03T10:17:31;68.15;;;26.10;;
65799;SDS011;52544;48.116;11.660;2023-03-03T10:26:04;62.72;;;25.63;;
65799;SDS011;52544;48.116;11.660;2023-03-03T10:31:57;65.85;;;26.52;;
65799;SDS011;52544;48.116;11.660;2023-03-03T10:34:38;68.03;;;24.95;;
65799;SDS011;52544;48.116;11.660;2023-03-03T10:40:37;63.78;;;26.33;;
65799;SDS011;52544;48.116;11.660;2023-03-03T10:46:11;65.72;;;25.50;;
65799;SDS011;52544;48.116;11.660;2023-03-03T11:07:41;71.93;;;25.38;;
65799;SDS011;52544;48.116;11.660;2023-03-03T11:10:23;66.00;;;25.98;;
65799;SDS011;52544;48.116;11.660;2023-03-03T11:15:38;58.90;;;25.48;;
65799;SDS011;52544;48.116;11.660;2023-03-03T11:20:49;66.68;;;26.80;;
65799;SDS011;52544;48.116;11.660;2023-03-03T11:23:47;65.65;;;26.25;;
65799;SDS011;52544;48.116;11.660;2023-03-03T11:29:36;75.70;;;26.05;;
65799;SDS011;52544;48.116;11.660;2023-03-03T11:35:14;66.32;;;26.58;;
65799;SDS011;52544;48.116;11.660;2023-03-03T11:41:25;60.33;;;25.30;;
65799;SDS011;52544;48.116;11.660;2023-03-03T11:44:01;65.32;;;26.90;;
65799;SDS011;52544;48.116;11.660;2023-03-03T11:46:39;68.72;;;27.55;;
65799;SDS011;52544;48.116;11.660;2023-03-03T11:55:08;61.03;;;26.13;;
65799;SDS011;52544;48.116;11.660;2023-03-03T11:57:40;74.95;;;29.33;;
65799;SDS011;52544;48.116;11.660;2023-03-03T12:03:12;67.05;;;27.50;;
65799;SDS011;52544;48.116;11.660;2023-03-03T12:14:27;64.07;;;25.88;;
65799;SDS011;52544;48.116;11.660;2023-03-03T12:17:11;63.92;;;27.52;;
65799;SDS011;52544;48.116;11.660;2023-03-03T12:22:36;64.18;;;26.23;;
65799;SDS011;52544;48.116;11.660;2023-03-03T12:25:23;60.25;;;26.95;;
65799;SDS011;52544;48.116;11.660;2023-03-03T12:28:18;68.47;;;26.73;;
65799;SDS011;52544;48.116;11.660;2023-03-03T12:31:08;62.13;;;26.83;;
65799;SDS011;52544;48.116;11.660;2023-03-03T12:45:17;61.50;;;26.67;;
65799;SDS011;52544;48.116;11.660;2023-03-03T12:47:54;61.33;;;26.67;;
65799;SDS011;52544;48.116;11.660;2023-03-03T12:50:50;60.40;;;25.85;;
65799;SDS011;52544;48.116;11.660;2023-03-03T12:56:03;59.72;;;25.77;;
65799;SDS011;52544;48.116;11.660;2023-03-03T13:01:44;66.13;;;26.30;;
65799;SDS011;52544;48.116;11.660;2023-03-03T13:18:18;64.53;;;26.27;;
65799;SDS011;52544;48.116;11.660;2023-03-03T13:21:04;61.45;;;26.08;;
65799;SDS011;52544;48.116;11.660;2023-03-03T13:26:09;67.72;;;27.27;;
65799;SDS011;52544;48.116;11.660;2023-03-03T13:28:41;61.47;;;26.30;;
65799;SDS011;52544;48.116;11.660;2023-03-03T13:31:20;73.95;;;26.85;;
65799;SDS011;52544;48.116;11.660;2023-03-03T13:34:07;60.63;;;26.35;;
65799;SDS011;52544;48.116;11.660;2023-03-03T13:36:41;65.32;;;26.63;;
65799;SDS011;52544;48.116;11.660;2023-03-03T13:40:02;59.83;;;26.30;;
65799;SDS011;52544;48.116;11.660;2023-03-03T13:45:06;66.47;;;25.85;;
65799;SDS011;52544;48.116;11.660;2023-03-03T13:50:18;60.13;;;26.13;;
65799;SDS011;52544;48.116;11.660;2023-03-03T13:56:16;54.35;;;25.58;;
65799;SDS011;52544;48.116;11.660;2023-03-03T14:01:08;65.03;;;27.23;;
65799;SDS011;52544;48.116;11.660;2023-03-03T14:03:58;73.00;;;25.38;;
65799;SDS011;52544;48.116;11.660;2023-03-03T14:06:37;57.25;;;25.08;;
65799;SDS011;52544;48.116;11.660;2023-03-03T14:11:53;55.35;;;24.88;;
65799;SDS011;52544;48.116;11.660;2023-03-03T14:22:45;52.65;;;24.55;;
65799;SDS011;52544;48.116;11.660;2023-03-03T14:25:14;58.25;;;26.52;;
65799;SDS011;52544;48.116;11.660;2023-03-03T14:27:42;60.38;;;26.50;;
65799;SDS011;52544;48.116;11.660;2023-03-03T14:33:00;56.15;;;25.00;;
65799;SDS011;52544;48.116;11.660;2023-03-03T14:35:28;56.13;;;25.10;;
65799;SDS011;52544;48.116;11.660;2023-03-03T14:38:00;57.50;;;26.13;;
65799;SDS011;52544;48.116;11.660;2023-03-03T14:40:31;54.90;;;24.88;;
65799;SDS011;52544;48.116;11.660;2023-03-03T14:42:59;58.55;;;26.00;;
65799;SDS011;52544;48.116;11.660;2023-03-03T14:50:41;58.88;;;24.98;;
65799;SDS011;52544;48.116;11.660;2023-03-03T14:55:49;50.50;;;23.73;;
65799;SDS011;52544;48.116;11.660;2023-03-03T14:58:27;56.75;;;24.90;;
65799;SDS011;52544;48.116;11.660;2023-03-03T15:09:18;54.45;;;24.98;;
65799;SDS011;52544;48.116;11.660;2023-03-03T15:11:51;64.35;;;24.88;;
65799;SDS011;52544;48.116;11.660;2023-03-03T15:14:19;62.17;;;25.45;;
65799;SDS011;52544;48.116;11.660;2023-03-03T15:16:50;49.67;;;23.40;;
65799;SDS011;52544;48.116;11.660;2023-03-03T15:24:24;53.28;;;23.95;;
65799;SDS011;52544;48.116;11.660;2023-03-03T15:27:34;52.42;;;22.25;;
65799;SDS011;52544;48.116;11.660;2023-03-03T15:37:47;53.15;;;24.95;;
65799;SDS011;52544;48.116;11.660;2023-03-03T15:40:29;52.10;;;22.63;;
65799;SDS011;52544;48.116;11.660;2023-03-03T15:48:43;53.08;;;22.13;;
65799;SDS011;52544;48.116;11.660;2023-03-03T16:02:22;53.78;;;23.23;;
65799;SDS011;52544;48.116;11.660;2023-03-03T16:05:00;52.08;;;22.65;;
65799;SDS011;52544;48.116;11.660;2023-03-03T16:07:49;47.22;;;21.30;;
65799;SDS011;52544;48.116;11.660;2023-03-03T16:10:19;48.00;;;21.50;;
65799;SDS011;52544;48.116;11.660;2023-03-03T16:12:56;50.20;;;21.88;;
65799;SDS011;52544;48.116;11.660;2023-03-03T16:23:45;61.20;;;23.95;;
65799;SDS011;52544;48.116;11.660;2023-03-03T16:37:37;56.20;;;24.58;;
65799;SDS011;52544;48.116;11.660;2023-03-03T16:40:19;55.45;;;24.08;;
65799;SDS011;52544;48.116;11.660;2023-03-03T16:42:46;58.50;;;24.50;;
65799;SDS011;52544;48.116;11.660;2023-03-03T16:45:17;53.60;;;23.92;;
65799;SDS011;52544;48.116;11.660;2023-03-03T16:56:13;58.85;;;29.80;;
65799;SDS011;52544;48.116;11.660;2023-03-03T17:01:49;61.25;;;26.50;;
65799;SDS011;52544;48.116;11.660;2023-03-03T17:09:20;70.55;;;30.95;;
65799;SDS011;52544;48.116;11.660;2023-03-03T17:14:43;56.83;;;25.58;;
65799;SDS011;52544;48.116;11.660;2023-03-03T17:19:54;56.13;;;25.40;;
65799;SDS011;52544;48.116;11.660;2023-03-03T17:27:49;53.50;;;23.20;;
65799;SDS011;52544;48.116;11.660;2023-03-03T17:30:40;56.30;;;23.52;;
65799;SDS011;52544;48.116;11.660;2023-03-03T17:33:56;57.22;;;25.13;;
65799;SDS011;52544;48.116;11.660;2023-03-03T17:36:11;58.92;;;25.23;;
65799;SDS011;52544;48.116;11.660;2023-03-03T17:39:12;62.13;;;25.10;;
65799;SDS011;52544;48.116;11.660;2023-03-03T17:44:41;59.38;;;24.83;;
65799;SDS011;52544;48.116;11.660;2023-03-03T17:47:08;63.88;;;25.55;;
65799;SDS011;52544;48.116;11.660;2023-03-03T17:55:33;60.75;;;24.30;;
65799;SDS011;52544;48.116;11.660;2023-03-03T17:58:16;66.05;;;26.58;;
65799;SDS011;52544;48.116;11.660;2023-03-03T18:03:27;61.72;;;25.90;;
65799;SDS011;52544;48.116;11.660;2023-03-03T18:17:06;74.95;;;31.20;;
65799;SDS011;52544;48.116;11.660;2023-03-03T18:22:51;67.60;;;29.15;;
65799;SDS011;52544;48.116;11.660;2023-03-03T18:25:21;77.95;;;31.85;;
65799;SDS011;52544;48.116;11.660;2023-03-03T18:30:34;68.57;;;31.85;;
65799;SDS011;52544;48.116;11.660;2023-03-03T18:38:52;73.97;;;29.98;;
65799;SDS011;52544;48.116;11.660;2023-03-03T18:41:31;74.88;;;30.80;;
65799;SDS011;52544;48.116;11.660;2023-03-03T18:44:01;77.28;;;29.33;;
65799;SDS011;52544;48.116;11.660;2023-03-03T18:47:00;69.65;;;27.98;;
65799;SDS011;52544;48.116;11.660;2023-03-03T18:52:24;66.70;;;27.60;;
65799;SDS011;52544;48.116;11.660;2023-03-03T18:57:29;64.60;;;25.67;;
65799;SDS011;52544;48.116;11.660;2023-03-03T19:00:14;66.90;;;26.65;;
65799;SDS011;52544;48.116;11.660;2023-03-03T19:02:50;64.18;;;26.67;;
65799;SDS011;52544;48.116;11.660;2023-03-03T19:16:40;70.88;;;26.90;;
65799;SDS011;52544;48.116;11.660;2023-03-03T19:21:25;59.70;;;26.00;;
65799;SDS011;52544;48.116;11.660;2023-03-03T19:23:55;64.25;;;26.10;;
65799;SDS011;52544;48.116;11.660;2023-03-03T19:31:35;65.20;;;26.20;;
65799;SDS011;52544;48.116;11.660;2023-03-03T19:34:11;68.38;;;26.10;;
65799;SDS011;52544;48.116;11.660;2023-03-03T19:39:40;70.35;;;26.98;;
65799;SDS011;52544;48.116;11.660;2023-03-03T19:44:56;68.90;;;27.38;;
65799;SDS011;52544;48.116;11.660;2023-03-03T19:47:34;74.35;;;28.45;;
65799;SDS011;52544;48.116;11.660;2023-03-03T19:50:24;71.03;;;27.30;;
65799;SDS011;52544;48.116;11.660;2023-03-03T20:04:23;62.50;;;26.08;;
65799;SDS011;52544;48.116;11.660;2023-03-03T20:07:19;69.47;;;25.15;;
65799;SDS011;52544;48.116;11.660;2023-03-03T20:10:00;62.25;;;25.95;;
65799;SDS011;52544;48.116;11.660;2023-03-03T20:12:45;66.60;;;26.27;;
65799;SDS011;52544;48.116;11.660;2023-03-03T20:16:09;68.85;;;27.23;;
65799;SDS011;52544;48.116;11.660;2023-03-03T20:18:55;67.35;;;26.00;;
65799;SDS011;52544;48.116;11.660;2023-03-03T20:24:45;73.15;;;27.58;;
65799;SDS011;52544;48.116;11.660;2023-03-03T20:30:13;63.58;;;26.42;;
65799;SDS011;52544;48.116;11.660;2023-03-03T20:38:28;74.35;;;29.95;;
65799;SDS011;52544;48.116;11.660;2023-03-03T20:41:11;72.43;;;29.20;;
65799;SDS011;52544;48.116;11.660;2023-03-03T20:43:54;75.07;;;28.48;;
65799;SDS011;52544;48.116;11.660;2023-03-03T20:46:44;71.15;;;27.38;;
65799;SDS011;52544;48.116;11.660;2023-03-03T20:52:24;75.20;;;27.70;;
65799;SDS011;52544;48.116;11.660;2023-03-03T20:55:09;74.40;;;27.23;;